createdAt,value
2022-12-17T00:00:32.511Z,63.97
2022-12-17T00:03:43.661Z,75.03
2022-12-17T00:06:34.848Z,75.93
2022-12-17T00:09:26.896Z,56.13
2022-12-17T00:15:16.514Z,72.00
2022-12-17T00:18:07.741Z,77.40
2022-12-17T00:20:59.482Z,56.85
2022-12-17T00:23:50.668Z,76.80
2022-12-17T00:26:41.791Z,69.97
2022-12-17T00:29:35.002Z,56.47
2022-12-17T00:32:27.818Z,71.57
2022-12-17T00:35:18.907Z,85.40
2022-12-17T00:38:10.081Z,70.45
2022-12-17T00:41:12.042Z,65.63
2022-12-17T00:44:03.059Z,64.70
2022-12-17T00:46:54.121Z,62.67
2022-12-17T00:49:45.673Z,77.47
2022-12-17T00:52:36.781Z,62.67
2022-12-17T00:55:28.463Z,84.30
2022-12-17T00:58:19.619Z,52.42
2022-12-17T01:01:11.205Z,77.88
2022-12-17T01:04:02.471Z,72.93
2022-12-17T01:06:54.283Z,75.35
2022-12-17T01:09:47.442Z,75.10
2022-12-17T01:12:38.735Z,80.97
2022-12-17T01:15:29.920Z,85.50
2022-12-17T01:18:21.085Z,60.63
2022-12-17T01:21:15.965Z,77.82
2022-12-17T01:24:07.634Z,69.82
2022-12-17T01:26:59.396Z,69.00
2022-12-17T01:29:51.221Z,71.32
2022-12-17T01:32:42.543Z,92.60
2022-12-17T01:35:34.089Z,71.43
2022-12-17T01:38:35.307Z,73.28
2022-12-17T01:41:27.707Z,84.55
2022-12-17T01:44:19.049Z,87.97
2022-12-17T01:50:01.625Z,68.65
2022-12-17T01:52:52.762Z,83.00
2022-12-17T01:55:43.555Z,89.78
2022-12-17T01:58:36.291Z,91.20
2022-12-17T02:01:27.777Z,86.40
2022-12-17T02:07:21.126Z,70.90
2022-12-17T02:10:31.251Z,77.80
2022-12-17T02:13:28.940Z,72.70
2022-12-17T02:16:31.408Z,85.60
2022-12-17T02:19:48.033Z,79.72
2022-12-17T02:22:51.611Z,80.97
2022-12-17T02:26:08.195Z,94.78
2022-12-17T02:29:05.232Z,92.72
2022-12-17T02:31:59.257Z,84.43
2022-12-17T02:34:50.992Z,80.80
2022-12-17T02:37:42.031Z,96.50
2022-12-17T02:40:33.591Z,88.60
2022-12-17T02:43:25.370Z,103.53
2022-12-17T02:46:17.209Z,83.68
2022-12-17T02:49:08.388Z,86.97
2022-12-17T02:52:01.565Z,92.20
2022-12-17T02:54:52.588Z,84.72
2022-12-17T03:00:38.177Z,88.68
2022-12-17T03:06:21.022Z,88.18
2022-12-17T03:09:12.635Z,93.97
2022-12-17T03:12:04.000Z,75.28
2022-12-17T03:14:55.310Z,77.78
2022-12-17T03:17:47.423Z,80.50
2022-12-17T03:20:39.408Z,93.03
2022-12-17T03:23:31.348Z,83.43
2022-12-17T03:26:23.065Z,115.18
2022-12-17T03:29:14.337Z,82.32
2022-12-17T03:32:05.420Z,99.72
2022-12-17T03:34:56.380Z,80.25
2022-12-17T03:37:47.601Z,92.70
2022-12-17T03:40:38.477Z,90.13
2022-12-17T03:43:30.695Z,86.72
2022-12-17T03:49:12.727Z,61.42
2022-12-17T03:52:03.761Z,82.82
2022-12-17T03:54:55.006Z,95.78
2022-12-17T03:57:46.166Z,109.38
2022-12-17T04:00:37.321Z,106.07
2022-12-17T04:03:28.448Z,74.22
2022-12-17T04:06:19.870Z,82.72
2022-12-17T04:09:11.106Z,92.00
2022-12-17T04:12:02.405Z,87.45
2022-12-17T04:14:54.169Z,84.97
2022-12-17T04:17:45.403Z,88.13
2022-12-17T04:20:36.742Z,86.27
2022-12-17T04:23:27.971Z,104.28
2022-12-17T04:26:18.978Z,99.97
2022-12-17T04:29:10.309Z,96.70
2022-12-17T04:32:01.469Z,83.97
2022-12-17T04:34:52.767Z,83.13
2022-12-17T04:37:43.983Z,95.40
2022-12-17T04:40:35.902Z,86.05
2022-12-17T04:43:27.580Z,77.93
2022-12-17T04:46:18.950Z,92.93
2022-12-17T04:49:10.049Z,73.30
2022-12-17T04:52:01.172Z,96.97
2022-12-17T04:54:51.967Z,76.90
2022-12-17T04:57:43.051Z,113.10
2022-12-17T05:00:34.199Z,99.37
2022-12-17T05:03:26.496Z,76.35
2022-12-17T05:06:17.716Z,87.82
2022-12-17T05:09:09.023Z,86.35
2022-12-17T05:12:00.007Z,70.95
2022-12-17T05:14:51.419Z,65.72
2022-12-17T05:17:42.539Z,72.53
2022-12-17T05:20:33.916Z,95.55
2022-12-17T05:23:26.025Z,105.03
2022-12-17T05:26:22.674Z,99.75
2022-12-17T05:29:16.021Z,91.60
2022-12-17T05:32:08.296Z,89.85
2022-12-17T05:34:59.625Z,99.00
2022-12-17T05:37:50.858Z,73.80
2022-12-17T05:40:41.690Z,79.05
2022-12-17T05:43:33.251Z,110.28
2022-12-17T05:46:24.544Z,101.70
2022-12-17T05:49:15.797Z,103.07
2022-12-17T05:52:06.603Z,74.45
2022-12-17T05:54:57.770Z,81.43
2022-12-17T05:57:51.778Z,83.15
2022-12-17T06:00:47.320Z,73.57
2022-12-17T06:03:38.574Z,81.63
2022-12-17T06:06:30.456Z,84.78
2022-12-17T06:09:21.275Z,89.47
2022-12-17T06:12:12.406Z,79.78
2022-12-17T06:15:03.193Z,87.10
2022-12-17T06:17:54.332Z,76.88
2022-12-17T06:20:45.648Z,90.13
2022-12-17T06:26:28.081Z,86.23
2022-12-17T06:29:19.283Z,78.68
2022-12-17T06:32:10.427Z,80.57
2022-12-17T06:35:01.718Z,66.20
2022-12-17T06:37:52.944Z,91.80
2022-12-17T06:40:44.316Z,94.15
2022-12-17T06:43:35.712Z,92.50
2022-12-17T06:46:27.262Z,87.60
2022-12-17T06:49:18.735Z,101.17
2022-12-17T06:52:10.939Z,71.75
2022-12-17T06:55:01.828Z,90.25
2022-12-17T06:57:53.219Z,99.13
2022-12-17T07:00:44.395Z,71.35
2022-12-17T07:03:36.474Z,84.93
2022-12-17T07:06:27.909Z,88.53
2022-12-17T07:09:19.248Z,92.40
2022-12-17T07:12:10.403Z,86.18
2022-12-17T07:15:01.976Z,92.50
2022-12-17T07:17:53.127Z,111.75
2022-12-17T07:20:44.518Z,83.72
2022-12-17T07:23:36.015Z,93.15
2022-12-17T07:26:27.494Z,75.88
2022-12-17T07:29:20.926Z,106.93
2022-12-17T07:32:12.565Z,98.72
2022-12-17T07:35:03.614Z,84.55
2022-12-17T07:37:54.883Z,71.50
2022-12-17T07:40:46.161Z,78.70
2022-12-17T07:43:37.607Z,81.90
2022-12-17T07:46:28.480Z,87.72
2022-12-17T07:49:25.644Z,99.75
2022-12-17T07:52:17.378Z,99.65
2022-12-17T07:55:08.768Z,84.32
2022-12-17T07:57:59.882Z,97.13
2022-12-17T08:00:51.281Z,83.82
2022-12-17T08:03:42.508Z,88.05
2022-12-17T08:06:34.104Z,87.28
2022-12-17T08:09:25.211Z,100.18
2022-12-17T08:12:16.544Z,75.85
2022-12-17T08:15:07.728Z,90.55
2022-12-17T08:17:58.938Z,106.35
2022-12-17T08:20:50.068Z,77.40
2022-12-17T08:23:41.627Z,88.15
2022-12-17T08:26:33.015Z,85.78
2022-12-17T08:29:24.498Z,72.93
2022-12-17T08:32:16.183Z,89.85
2022-12-17T08:35:07.884Z,79.65
2022-12-17T08:37:59.011Z,74.30
2022-12-17T08:40:50.127Z,77.20
2022-12-17T08:43:41.014Z,76.75
2022-12-17T08:46:32.410Z,90.18
2022-12-17T08:49:23.694Z,93.10
2022-12-17T08:52:14.779Z,81.75
2022-12-17T08:55:05.934Z,73.07
2022-12-17T08:57:57.011Z,66.80
2022-12-17T09:00:47.971Z,77.85
2022-12-17T09:03:40.081Z,71.20
2022-12-17T09:06:34.653Z,89.70
2022-12-17T09:09:30.331Z,88.05
2022-12-17T09:12:21.197Z,105.28
2022-12-17T09:15:13.138Z,73.65
2022-12-17T09:18:04.217Z,101.55
2022-12-17T09:20:55.789Z,89.50
2022-12-17T09:23:47.272Z,77.03
2022-12-17T09:26:38.738Z,86.32
2022-12-17T09:29:29.907Z,61.05
2022-12-17T09:32:21.250Z,80.63
2022-12-17T09:35:12.339Z,93.07
2022-12-17T09:38:09.899Z,84.40
2022-12-17T09:41:04.599Z,66.30
2022-12-17T09:43:56.125Z,72.13
2022-12-17T09:47:03.973Z,66.28
2022-12-17T09:49:56.312Z,63.50
2022-12-17T09:52:58.599Z,81.13
2022-12-17T09:55:57.986Z,67.90
2022-12-17T09:58:49.600Z,58.70
2022-12-17T10:01:45.652Z,69.70
2022-12-17T10:04:40.074Z,74.07
2022-12-17T10:07:33.942Z,59.88
2022-12-17T10:10:39.345Z,68.30
2022-12-17T10:13:33.676Z,64.30
2022-12-17T10:16:44.743Z,78.68
2022-12-17T10:19:40.947Z,66.65
2022-12-17T10:22:34.572Z,59.25
2022-12-17T10:25:34.933Z,72.35
2022-12-17T10:28:29.255Z,55.92
2022-12-17T10:31:21.011Z,67.55
2022-12-17T10:34:14.232Z,70.07
2022-12-17T10:37:07.524Z,66.75
2022-12-17T10:40:00.066Z,53.50
2022-12-17T10:42:57.793Z,61.92
2022-12-17T10:45:50.229Z,54.33
2022-12-17T10:48:48.471Z,46.85
2022-12-17T10:51:53.127Z,65.80
2022-12-17T10:54:49.431Z,57.97
2022-12-17T10:57:44.189Z,75.20
2022-12-17T11:00:50.631Z,55.97
2022-12-17T11:03:44.957Z,92.13
2022-12-17T11:06:57.854Z,88.20
2022-12-17T11:09:51.468Z,79.20
2022-12-17T11:12:55.267Z,63.65
2022-12-17T11:15:46.313Z,80.20
2022-12-17T11:18:43.512Z,80.93
2022-12-17T11:21:39.316Z,144.55
2022-12-17T11:24:33.574Z,68.10
2022-12-17T11:27:27.359Z,69.07
2022-12-17T11:30:20.607Z,60.92
2022-12-17T11:33:22.666Z,65.28
2022-12-17T11:36:13.983Z,152.77
2022-12-17T11:39:27.699Z,102.63
2022-12-17T11:42:23.453Z,75.13
2022-12-17T11:45:27.969Z,69.82
2022-12-17T11:48:23.695Z,52.45
2022-12-17T11:51:33.202Z,81.72
2022-12-17T11:54:24.501Z,73.80
2022-12-17T11:57:18.846Z,72.57
2022-12-17T12:00:29.774Z,80.82
2022-12-17T12:03:21.123Z,60.63
2022-12-17T12:09:31.015Z,56.00
2022-12-17T12:12:33.335Z,57.60
2022-12-17T12:15:27.384Z,59.90
2022-12-17T12:18:27.747Z,55.78
2022-12-17T12:21:22.107Z,76.90
2022-12-17T12:24:24.563Z,55.90
2022-12-17T12:27:39.185Z,61.35
2022-12-17T12:30:37.843Z,55.55
2022-12-17T12:33:39.708Z,82.78
2022-12-17T12:36:33.531Z,80.40
2022-12-17T12:39:29.435Z,80.78
2022-12-17T12:42:28.456Z,49.75
2022-12-17T12:45:19.933Z,52.13
2022-12-17T12:48:34.655Z,66.57
2022-12-17T12:51:34.444Z,59.20
2022-12-17T12:54:41.863Z,54.58
2022-12-17T12:57:48.283Z,63.85
2022-12-17T13:00:41.233Z,55.63
2022-12-17T13:03:39.616Z,67.15
2022-12-17T13:06:14.297Z,59.67
2022-12-17T13:08:46.903Z,57.42
2022-12-17T13:11:30.322Z,65.57
2022-12-17T13:14:06.661Z,51.72
2022-12-17T13:16:50.828Z,69.53
2022-12-17T13:19:34.863Z,61.53
2022-12-17T13:22:12.007Z,64.30
2022-12-17T13:24:49.381Z,67.40
2022-12-17T13:27:28.388Z,55.35
2022-12-17T13:30:19.206Z,105.78
2022-12-17T13:32:54.815Z,74.65
2022-12-17T13:35:50.663Z,59.67
2022-12-17T13:38:42.878Z,64.97
2022-12-17T13:43:52.759Z,99.72
2022-12-17T13:46:26.866Z,69.15
2022-12-17T13:49:01.732Z,53.60
2022-12-17T13:51:35.288Z,69.32
2022-12-17T13:54:15.307Z,79.53
2022-12-17T13:56:47.937Z,45.88
2022-12-17T13:59:22.193Z,49.35
2022-12-17T14:01:54.987Z,49.60
2022-12-17T14:04:29.948Z,56.35
2022-12-17T14:07:06.387Z,55.33
2022-12-17T14:09:40.891Z,56.40
2022-12-17T14:12:35.563Z,59.58
2022-12-17T14:15:17.922Z,46.35
2022-12-17T14:17:51.135Z,60.50
2022-12-17T14:20:25.750Z,44.03
2022-12-17T14:23:11.265Z,63.67
2022-12-17T14:25:44.786Z,56.50
2022-12-17T14:28:22.170Z,51.03
2022-12-17T14:31:31.630Z,52.35
2022-12-17T14:34:08.613Z,47.83
2022-12-17T14:36:42.687Z,60.55
2022-12-17T14:39:33.428Z,41.25
2022-12-17T14:42:27.126Z,50.72
2022-12-17T14:45:01.245Z,52.88
2022-12-17T14:47:35.709Z,45.00
2022-12-17T14:50:28.518Z,39.70
2022-12-17T14:53:02.704Z,54.03
2022-12-17T14:55:56.267Z,40.53
2022-12-17T14:58:29.198Z,64.53
2022-12-17T15:01:04.680Z,63.53
2022-12-17T15:03:42.157Z,63.55
2022-12-17T15:06:19.013Z,55.25
2022-12-17T15:08:53.510Z,53.50
2022-12-17T15:11:26.073Z,58.53
2022-12-17T15:13:58.911Z,49.45
2022-12-17T15:16:31.760Z,44.78
2022-12-17T15:19:05.041Z,54.95
2022-12-17T15:21:37.847Z,51.40
2022-12-17T15:24:16.251Z,52.30
2022-12-17T15:26:58.966Z,58.00
2022-12-17T15:29:32.310Z,53.63
2022-12-17T15:32:05.203Z,59.22
2022-12-17T15:34:38.113Z,52.45
2022-12-17T15:37:10.579Z,62.08
2022-12-17T15:39:43.817Z,53.53
2022-12-17T15:42:36.419Z,61.65
2022-12-17T15:45:09.652Z,64.88
2022-12-17T15:47:43.424Z,71.22
2022-12-17T15:50:16.402Z,62.67
2022-12-17T15:52:49.027Z,74.50
2022-12-17T15:55:22.167Z,66.50
2022-12-17T15:57:54.709Z,56.50
2022-12-17T16:00:27.916Z,47.42
2022-12-17T16:03:00.683Z,72.20
2022-12-17T16:05:33.894Z,80.50
2022-12-17T16:08:06.483Z,83.15
2022-12-17T16:10:39.557Z,50.08
2022-12-17T16:13:12.419Z,56.63
2022-12-17T16:15:45.393Z,81.30
2022-12-17T16:18:18.101Z,71.70
2022-12-17T16:20:51.209Z,50.25
2022-12-17T16:23:23.826Z,80.68
2022-12-17T16:26:00.943Z,45.38
2022-12-17T16:28:34.353Z,49.20
2022-12-17T16:31:16.762Z,51.58
2022-12-17T16:33:49.398Z,56.70
2022-12-17T16:36:22.395Z,67.78
2022-12-17T16:38:55.112Z,51.92
2022-12-17T16:41:28.050Z,46.70
2022-12-17T16:44:01.376Z,52.20
2022-12-17T16:46:35.871Z,51.00
2022-12-17T16:49:10.189Z,52.67
2022-12-17T16:51:43.826Z,58.05
2022-12-17T16:54:20.486Z,44.17
2022-12-17T16:56:53.823Z,56.55
2022-12-17T16:59:26.551Z,67.30
2022-12-17T17:02:00.531Z,63.47
2022-12-17T17:04:33.254Z,54.30
2022-12-17T17:07:06.106Z,47.15
2022-12-17T17:09:39.209Z,46.50
2022-12-17T17:12:12.294Z,49.28
2022-12-17T17:14:44.915Z,47.45
2022-12-17T17:17:17.877Z,55.13
2022-12-17T17:19:50.432Z,46.47
2022-12-17T17:22:23.343Z,55.30
2022-12-17T17:24:56.032Z,47.53
2022-12-17T17:27:30.429Z,48.90
2022-12-17T17:30:04.162Z,38.42
2022-12-17T17:32:37.348Z,39.97
2022-12-17T17:35:10.089Z,59.13
2022-12-17T17:37:43.537Z,50.53
2022-12-17T17:40:16.184Z,50.35
2022-12-17T17:42:52.949Z,62.13
2022-12-17T17:45:25.710Z,57.63
2022-12-17T17:47:58.791Z,52.95
2022-12-17T17:50:31.507Z,54.22
2022-12-17T17:53:04.420Z,34.45
2022-12-17T17:55:36.926Z,65.93
2022-12-17T17:58:09.776Z,48.42
2022-12-17T18:00:42.369Z,67.85
2022-12-17T18:03:15.337Z,40.38
2022-12-17T18:05:48.011Z,33.55
2022-12-17T18:08:20.944Z,48.88
2022-12-17T18:11:00.490Z,67.22
2022-12-17T18:13:51.896Z,46.45
2022-12-17T18:16:32.057Z,64.47
2022-12-17T18:19:07.664Z,78.85
2022-12-17T18:21:40.840Z,49.33
2022-12-17T18:24:18.524Z,44.92
2022-12-17T18:26:52.592Z,65.32
2022-12-17T18:29:27.602Z,50.22
2022-12-17T18:32:00.176Z,44.20
2022-12-17T18:34:34.259Z,78.55
2022-12-17T18:37:06.824Z,52.25
2022-12-17T18:39:39.725Z,55.00
2022-12-17T18:42:30.976Z,55.17
2022-12-17T18:45:04.503Z,45.72
2022-12-17T18:47:37.736Z,42.30
2022-12-17T18:50:11.743Z,59.53
2022-12-17T18:52:44.348Z,47.55
2022-12-17T18:55:20.077Z,40.30
2022-12-17T18:57:53.472Z,51.78
2022-12-17T19:00:29.341Z,43.10
2022-12-17T19:03:04.573Z,39.25
2022-12-17T19:05:43.618Z,37.00
2022-12-17T19:08:18.407Z,50.85
2022-12-17T19:10:54.485Z,42.55
2022-12-17T19:13:26.937Z,53.55
2022-12-17T19:16:07.401Z,43.40
2022-12-17T19:18:40.657Z,35.22
2022-12-17T19:21:17.691Z,59.03
2022-12-17T19:23:51.071Z,38.20
2022-12-17T19:26:24.568Z,43.15
2022-12-17T19:28:58.287Z,33.10
2022-12-17T19:31:32.453Z,45.60
2022-12-17T19:34:06.407Z,50.65
2022-12-17T19:36:39.915Z,53.53
2022-12-17T19:39:13.416Z,44.13
2022-12-17T19:41:46.864Z,44.30
2022-12-17T19:44:21.327Z,44.25
2022-12-17T19:46:58.658Z,46.10
2022-12-17T19:49:35.510Z,61.78
2022-12-17T19:52:08.346Z,47.22
2022-12-17T19:54:41.106Z,55.25
2022-12-17T19:57:13.987Z,52.25
2022-12-17T19:59:46.780Z,44.90
2022-12-17T20:02:20.259Z,50.42
2022-12-17T20:04:53.595Z,39.33
2022-12-17T20:07:26.722Z,48.30
2022-12-17T20:09:59.393Z,33.25
2022-12-17T20:12:32.319Z,38.45
2022-12-17T20:15:05.150Z,44.72
2022-12-17T20:17:38.021Z,35.00
2022-12-17T20:20:10.909Z,33.88
2022-12-17T20:22:43.820Z,38.83
2022-12-17T20:25:16.374Z,32.05
2022-12-17T20:27:49.271Z,38.47
2022-12-17T20:30:25.642Z,35.85
2022-12-17T20:32:58.495Z,36.92
2022-12-17T20:35:31.001Z,33.17
2022-12-17T20:38:03.874Z,33.50
2022-12-17T20:40:38.779Z,35.03
2022-12-17T20:43:14.192Z,40.92
2022-12-17T20:45:51.317Z,34.08
2022-12-17T20:48:24.313Z,36.30
2022-12-17T20:50:56.891Z,42.78
2022-12-17T20:53:29.815Z,38.33
2022-12-17T20:56:04.127Z,47.05
2022-12-17T20:58:37.962Z,42.63
2022-12-17T21:01:12.553Z,33.85
2022-12-17T21:03:45.746Z,39.80
2022-12-17T21:06:25.736Z,35.75
2022-12-17T21:08:59.087Z,38.08
2022-12-17T21:11:32.299Z,47.42
2022-12-17T21:14:09.383Z,47.83
2022-12-17T21:16:42.585Z,45.33
2022-12-17T21:19:17.201Z,30.50
2022-12-17T21:21:49.801Z,25.90
2022-12-17T21:24:22.670Z,44.30
2022-12-17T21:26:55.189Z,54.17
2022-12-17T21:29:28.612Z,82.10
2022-12-17T21:32:01.228Z,37.15
2022-12-17T21:34:34.215Z,44.10
2022-12-17T21:37:06.869Z,34.63
2022-12-17T21:39:43.281Z,51.70
2022-12-17T21:42:34.079Z,65.63
2022-12-17T21:45:07.207Z,54.53
2022-12-17T21:47:39.855Z,47.67
2022-12-17T21:50:12.819Z,47.08
2022-12-17T21:52:45.440Z,58.08
2022-12-17T21:55:18.431Z,39.17
2022-12-17T21:57:51.305Z,65.07
2022-12-17T22:00:24.410Z,63.72
2022-12-17T22:02:56.997Z,53.95
2022-12-17T22:05:29.967Z,50.83
2022-12-17T22:08:02.496Z,66.43
2022-12-17T22:10:38.663Z,81.57
2022-12-17T22:13:38.578Z,99.65
2022-12-17T22:16:11.460Z,65.70
2022-12-17T22:18:44.457Z,65.03
2022-12-17T22:21:17.968Z,68.88
2022-12-17T22:23:50.699Z,59.88
2022-12-17T22:26:23.892Z,54.38
2022-12-17T22:28:56.627Z,52.80
2022-12-17T22:31:48.084Z,66.95
2022-12-17T22:39:20.261Z,58.67
2022-12-17T22:44:31.381Z,99.10
2022-12-17T22:44:37.449Z,36.97
2022-12-17T22:46:10.502Z,43.90
2022-12-17T22:48:43.536Z,46.58
2022-12-17T22:51:22.592Z,56.25
2022-12-17T22:54:03.634Z,54.83
2022-12-17T22:57:34.698Z,47.20
2022-12-17T22:59:30.492Z,42.58
2022-12-17T23:02:03.031Z,54.20
2022-12-17T23:04:35.880Z,43.58
2022-12-17T23:07:08.375Z,33.30
2022-12-17T23:09:41.263Z,42.22
2022-12-17T23:12:32.519Z,29.10
2022-12-17T23:15:05.819Z,35.83
2022-12-17T23:17:39.153Z,42.92
2022-12-17T23:20:12.155Z,35.60
2022-12-17T23:22:44.725Z,26.25
2022-12-17T23:25:17.788Z,34.63
2022-12-17T23:27:50.589Z,41.97
2022-12-17T23:30:23.716Z,33.30
2022-12-17T23:32:56.289Z,36.13
2022-12-17T23:35:30.516Z,20.85
2022-12-17T23:38:03.077Z,39.67
2022-12-17T23:40:35.972Z,29.27
2022-12-17T23:43:12.925Z,26.92
2022-12-17T23:45:48.729Z,41.47
2022-12-17T23:48:21.649Z,48.47
2022-12-17T23:50:54.653Z,59.15
2022-12-17T23:53:27.753Z,63.10
2022-12-17T23:56:08.395Z,29.83
2022-12-17T23:58:42.603Z,49.13
